createdAt,value
2019-01-29T01:36:03.105Z,5.20
2019-01-29T01:37:04.144Z,12.80
2019-01-29T01:38:04.089Z,10.70
2019-01-29T01:39:04.098Z,12.10
2019-01-29T01:40:04.093Z,12.00
2019-01-29T01:41:04.099Z,12.00
2019-01-29T01:42:04.053Z,13.10
2019-01-29T01:43:04.048Z,12.00
2019-01-29T01:44:04.031Z,10.70
2019-01-29T01:45:04.004Z,13.40
2019-01-29T01:46:03.991Z,14.70
2019-01-29T01:47:04.034Z,12.10
2019-01-29T01:48:03.983Z,12.20
2019-01-29T01:49:03.957Z,10.60
2019-01-29T01:50:03.972Z,13.20
2019-01-29T01:51:03.933Z,13.40
2019-01-29T01:52:03.941Z,12.60
2019-01-29T01:53:03.941Z,13.40
2019-01-29T01:54:03.922Z,11.00
2019-01-29T01:55:03.902Z,10.20
2019-01-29T01:56:03.922Z,12.60
2019-01-29T01:57:03.928Z,13.50
2019-01-29T01:58:03.862Z,11.80
2019-01-29T01:59:03.841Z,12.60
2019-01-29T02:00:03.965Z,13.10
2019-01-29T02:01:03.821Z,10.80
2019-01-29T02:02:03.834Z,11.80
2019-01-29T02:03:03.820Z,12.40
2019-01-29T02:04:03.788Z,13.30
2019-01-29T02:05:03.776Z,15.10
2019-01-29T02:06:03.776Z,15.60
2019-01-29T02:07:03.781Z,13.10
2019-01-29T02:08:03.741Z,11.50
2019-01-29T02:09:03.757Z,12.60
2019-01-29T02:10:03.724Z,15.00
2019-01-29T02:11:03.722Z,11.40
2019-01-29T02:12:03.730Z,15.50
2019-01-29T02:13:03.712Z,16.30
2019-01-29T02:14:03.687Z,14.10
2019-01-29T02:15:03.669Z,12.40
2019-01-29T02:16:03.686Z,15.40
2019-01-29T02:17:03.674Z,13.70
2019-01-29T02:18:03.648Z,13.70
2019-01-29T02:19:03.704Z,11.50
2019-01-29T02:20:03.634Z,14.40
2019-01-29T02:21:03.616Z,18.20
2019-01-29T02:22:03.610Z,16.30
2019-01-29T02:23:08.088Z,14.00
2019-01-29T02:24:03.585Z,15.70
2019-01-29T02:25:03.564Z,15.00
2019-01-29T02:26:03.588Z,13.20
2019-01-29T02:27:03.559Z,12.90
2019-01-29T02:28:03.559Z,15.00
2019-01-29T02:29:03.531Z,13.00
2019-01-29T02:30:03.540Z,15.20
2019-01-29T02:31:03.510Z,13.50
2019-01-29T02:32:03.535Z,12.40
2019-01-29T02:33:03.487Z,16.00
2019-01-29T02:34:03.465Z,14.10
2019-01-29T02:35:03.483Z,11.60
2019-01-29T02:36:03.457Z,13.40
2019-01-29T02:37:03.467Z,11.60
2019-01-29T02:38:03.445Z,12.30
2019-01-29T02:39:03.461Z,13.40
2019-01-29T02:40:03.417Z,12.10
2019-01-29T02:41:03.408Z,11.60
2019-01-29T02:42:03.419Z,16.20
2019-01-29T02:43:03.418Z,11.90
2019-01-29T02:44:03.374Z,14.40
2019-01-29T02:45:03.363Z,14.40
2019-01-29T02:46:03.349Z,15.30
2019-01-29T02:47:03.358Z,10.80
2019-01-29T02:48:03.346Z,11.10
2019-01-29T02:49:03.326Z,13.40
2019-01-29T02:50:03.319Z,13.50
2019-01-29T02:51:03.335Z,13.10
2019-01-29T02:52:03.303Z,12.40
2019-01-29T02:53:03.309Z,12.20
2019-01-29T02:54:03.256Z,11.00
2019-01-29T02:55:03.252Z,11.40
2019-01-29T02:56:03.235Z,10.60
2019-01-29T02:57:03.259Z,13.40
2019-01-29T02:58:03.233Z,14.40
2019-01-29T02:59:03.216Z,11.80
2019-01-29T03:00:03.332Z,13.80
2019-01-29T03:01:03.198Z,15.10
2019-01-29T03:02:03.190Z,10.80
2019-01-29T03:03:03.199Z,12.40
2019-01-29T03:04:03.156Z,13.20
2019-01-29T03:05:03.146Z,9.90
2019-01-29T03:06:03.163Z,12.20
2019-01-29T03:07:03.156Z,12.10
2019-01-29T03:08:03.115Z,12.20
2019-01-29T03:09:03.140Z,10.00
2019-01-29T03:10:03.116Z,11.80
2019-01-29T03:11:03.099Z,13.90
2019-01-29T03:12:03.117Z,13.20
2019-01-29T03:13:03.106Z,12.30
2019-01-29T03:14:03.052Z,10.00
2019-01-29T03:15:03.054Z,12.80
2019-01-29T03:16:03.044Z,9.40
2019-01-29T03:17:03.038Z,11.90
2019-01-29T03:18:03.005Z,15.70
2019-01-29T03:19:03.015Z,12.20
2019-01-29T03:20:02.987Z,10.00
2019-01-29T03:21:02.995Z,14.80
2019-01-29T03:22:03.006Z,12.70
2019-01-29T03:23:02.971Z,12.10
2019-01-29T03:24:02.980Z,12.10
2019-01-29T03:25:02.966Z,13.70
2019-01-29T03:26:02.955Z,12.80
2019-01-29T03:27:02.978Z,11.40
2019-01-29T03:28:02.961Z,13.10
2019-01-29T03:29:02.897Z,12.10
2019-01-29T03:30:02.953Z,14.00
2019-01-29T03:31:02.915Z,13.60
2019-01-29T03:32:02.880Z,12.60
2019-01-29T03:33:02.864Z,9.10
2019-01-29T03:34:02.858Z,11.30
2019-01-29T03:35:02.852Z,15.80
2019-01-29T05:01:05.052Z,11.50
2019-01-29T05:02:06.009Z,23.50
2019-01-29T05:03:06.018Z,20.60
2019-01-29T05:04:05.995Z,24.70
2019-01-29T05:05:06.007Z,24.00
2019-01-29T05:06:05.991Z,26.60
2019-01-29T05:07:05.983Z,25.90
2019-01-29T05:08:05.989Z,26.30
2019-01-29T05:09:05.991Z,26.40
2019-01-29T05:10:05.935Z,21.80
2019-01-29T05:11:05.948Z,22.50
2019-01-29T05:12:05.906Z,24.30
2019-01-29T05:13:05.903Z,27.40
2019-01-29T05:14:05.869Z,25.90
2019-01-29T05:15:05.863Z,24.90
2019-01-29T05:16:05.876Z,25.00
2019-01-29T05:17:05.853Z,22.80
2019-01-29T05:18:05.832Z,23.20
2019-01-29T05:19:05.816Z,25.50
2019-01-29T05:20:05.838Z,24.50
2019-01-29T05:21:05.828Z,26.50
2019-01-29T05:22:05.812Z,27.90
2019-01-29T05:23:05.804Z,24.00
2019-01-29T05:24:06.777Z,23.80
2019-01-29T05:25:05.773Z,27.00
2019-01-29T05:26:05.774Z,26.00
2019-01-29T05:27:05.800Z,22.50
2019-01-29T05:28:05.739Z,26.80
2019-01-29T05:29:05.722Z,20.80
2019-01-29T05:30:05.708Z,24.40
2019-01-29T05:31:05.711Z,22.90
2019-01-29T05:32:05.739Z,25.90
2019-01-29T05:33:05.775Z,23.30
2019-01-29T05:34:05.688Z,26.00
2019-01-29T05:35:05.657Z,26.60
2019-01-29T05:36:05.687Z,26.30
2019-01-29T05:37:05.652Z,26.70
2019-01-29T05:38:05.640Z,28.00
2019-01-29T05:39:05.651Z,33.60
2019-01-29T05:40:05.647Z,24.90
2019-01-29T05:41:05.617Z,25.00
2019-01-29T05:42:05.586Z,28.20
2019-01-29T05:43:05.566Z,28.50
2019-01-29T05:44:05.601Z,23.50
2019-01-29T05:45:05.576Z,25.10
2019-01-29T05:46:05.561Z,23.50
2019-01-29T05:47:05.539Z,24.60
2019-01-29T05:48:05.529Z,26.50
2019-01-29T05:49:05.519Z,26.10
2019-01-29T05:50:05.522Z,25.90
2019-01-29T05:51:05.496Z,22.80
2019-01-29T05:52:05.465Z,27.60
2019-01-29T05:53:05.496Z,27.50
2019-01-29T05:54:05.456Z,23.50
2019-01-29T05:55:05.463Z,24.80
2019-01-29T05:56:05.445Z,25.30
2019-01-29T05:57:05.414Z,28.00
2019-01-29T05:58:05.401Z,27.40
2019-01-29T05:59:05.433Z,25.90
2019-01-29T06:00:05.423Z,21.90
2019-01-29T06:01:05.379Z,25.30
2019-01-29T06:02:05.413Z,25.20
2019-01-29T06:03:05.350Z,29.00
2019-01-29T06:04:05.331Z,23.10
2019-01-29T06:05:05.321Z,23.80
2019-01-29T06:06:05.339Z,24.60
2019-01-29T06:07:05.317Z,19.60
2019-01-29T06:08:05.407Z,23.10
2019-01-29T06:09:05.284Z,22.40
2019-01-29T06:10:05.288Z,24.70
2019-01-29T06:11:05.284Z,24.50
2019-01-29T06:12:05.261Z,20.90
2019-01-29T06:13:05.259Z,22.70
2019-01-29T06:14:05.253Z,25.60
2019-01-29T06:15:05.234Z,31.40
2019-01-29T06:16:05.220Z,22.30
2019-01-29T06:17:05.204Z,23.00
2019-01-29T06:18:05.215Z,24.60
2019-01-29T06:19:05.188Z,23.70
2019-01-29T06:20:05.184Z,27.60
2019-01-29T06:21:05.171Z,26.00
2019-01-29T06:22:05.158Z,28.40
2019-01-29T06:23:05.132Z,24.90
2019-01-29T06:24:05.129Z,25.00
2019-01-29T06:25:05.128Z,23.50
2019-01-29T06:26:05.135Z,26.70
2019-01-29T06:27:05.113Z,25.30
2019-01-29T06:28:05.079Z,22.10
2019-01-29T06:29:05.079Z,23.10
2019-01-29T06:30:05.082Z,27.40
2019-01-29T06:31:05.066Z,24.90
2019-01-29T06:32:05.251Z,24.70
2019-01-29T06:33:05.021Z,23.00
2019-01-29T06:34:05.016Z,26.40
2019-01-29T06:35:05.036Z,24.00
2019-01-29T06:36:05.015Z,26.90
2019-01-29T06:37:04.993Z,26.50
2019-01-29T06:38:05.128Z,25.30
2019-01-29T06:39:04.967Z,24.60
2019-01-29T06:40:04.963Z,27.90
2019-01-29T06:41:05.112Z,26.80
2019-01-29T06:42:04.930Z,27.30
2019-01-29T06:43:04.916Z,29.50
2019-01-29T06:44:05.090Z,26.00
2019-01-29T06:45:04.884Z,22.60
2019-01-29T06:46:04.971Z,24.50
2019-01-29T06:47:05.199Z,28.80
2019-01-29T06:48:05.106Z,26.00
2019-01-29T06:49:04.921Z,26.80
2019-01-29T06:50:05.072Z,27.20
2019-01-29T06:51:05.063Z,27.00
2019-01-29T06:52:05.076Z,25.10
2019-01-29T06:53:04.992Z,30.70
2019-01-29T06:54:05.021Z,23.90
2019-01-29T06:55:05.066Z,28.30
2019-01-29T06:56:05.269Z,29.80
2019-01-29T06:57:05.130Z,27.10
2019-01-29T06:58:05.813Z,27.30
2019-01-29T06:59:04.786Z,29.50
2019-01-29T07:00:05.973Z,30.90
2019-01-29T07:02:37.029Z,39.00
2019-01-29T07:03:38.011Z,32.60
2019-01-29T07:04:37.974Z,29.40
2019-01-29T07:05:37.965Z,32.20
2019-01-29T07:06:38.001Z,29.30
2019-01-29T07:07:38.076Z,27.90
2019-01-29T07:08:37.952Z,30.70
2019-01-29T07:09:38.216Z,31.40
2019-01-29T07:10:37.986Z,29.10
2019-01-29T07:11:38.082Z,32.90
2019-01-29T07:12:37.921Z,30.70
2019-01-29T07:13:37.902Z,32.50
2019-01-29T07:14:37.877Z,30.10
2019-01-29T07:15:37.873Z,28.70
2019-01-29T07:16:38.000Z,31.60
2019-01-29T07:17:37.885Z,30.20
2019-01-29T07:18:37.830Z,36.30
2019-01-29T07:19:37.818Z,35.30
2019-01-29T07:20:37.846Z,34.20
2019-01-29T07:21:37.841Z,32.00
2019-01-29T07:22:37.983Z,29.30
2019-01-29T07:23:37.791Z,33.20
2019-01-29T07:24:42.761Z,34.60
2019-01-29T07:25:37.813Z,34.70
2019-01-29T07:26:37.962Z,32.70
2019-01-29T07:27:37.771Z,34.30
2019-01-29T07:28:37.813Z,32.80
2019-01-29T07:29:37.726Z,35.80
2019-01-29T07:30:37.781Z,38.30
2019-01-29T07:31:37.798Z,34.20
2019-01-29T07:32:37.706Z,36.80
2019-01-29T07:33:37.671Z,37.90
2019-01-29T07:34:37.712Z,39.00
2019-01-29T07:35:37.787Z,38.90
2019-01-29T07:36:37.664Z,37.20
2019-01-29T07:37:37.700Z,35.00
2019-01-29T07:38:37.626Z,38.40
2019-01-29T07:39:37.624Z,39.70
2019-01-29T07:40:37.650Z,43.60
2019-01-29T07:41:37.583Z,44.20
2019-01-29T07:42:37.591Z,42.00
2019-01-29T07:43:37.625Z,41.80
2019-01-29T07:44:37.571Z,42.60
2019-01-29T07:45:37.544Z,39.90
2019-01-29T07:46:37.538Z,42.40
2019-01-29T07:47:37.538Z,40.40
2019-01-29T07:48:37.521Z,47.00
2019-01-29T07:49:37.537Z,42.90
2019-01-29T07:50:37.542Z,44.10
2019-01-29T07:51:37.945Z,44.20
2019-01-29T07:52:37.505Z,44.40
2019-01-29T07:53:37.481Z,41.60
2019-01-29T07:54:37.482Z,45.90
2019-01-29T07:55:37.472Z,45.80
2019-01-29T07:56:37.429Z,46.40
2019-01-29T07:57:37.455Z,47.90
2019-01-29T07:58:37.461Z,47.40
2019-01-29T07:59:38.208Z,45.90
2019-01-29T08:00:37.402Z,46.50
2019-01-29T08:01:37.390Z,46.80
2019-01-29T08:02:37.389Z,45.50
2019-01-29T08:03:38.281Z,50.60
2019-01-29T08:04:37.423Z,48.50
2019-01-29T08:05:37.331Z,47.20
2019-01-29T08:06:37.479Z,45.90
2019-01-29T08:07:37.344Z,46.60
2019-01-29T08:08:37.299Z,45.30
2019-01-29T08:09:37.294Z,49.10
2019-01-29T08:10:37.271Z,49.10
2019-01-29T08:11:37.279Z,46.20
2019-01-29T08:12:37.285Z,47.70
2019-01-29T08:13:37.269Z,47.70
2019-01-29T08:14:37.239Z,45.60
2019-01-29T08:15:37.235Z,45.00
2019-01-29T08:16:37.214Z,48.40
2019-01-29T08:17:37.228Z,46.40
2019-01-29T08:18:37.220Z,47.60
2019-01-29T08:19:37.214Z,48.80
2019-01-29T08:20:37.186Z,48.20
2019-01-29T08:21:37.180Z,50.80
2019-01-29T08:22:37.181Z,51.10
2019-01-29T08:23:37.187Z,49.50
2019-01-29T08:24:37.142Z,44.60
2019-01-29T08:25:37.146Z,49.10
2019-01-29T08:26:37.161Z,52.80
2019-01-29T08:27:37.187Z,54.00
2019-01-29T08:28:37.097Z,48.40
2019-01-29T08:29:37.077Z,49.90
2019-01-29T08:30:37.204Z,52.40
2019-01-29T08:31:37.061Z,53.60
2019-01-29T08:32:37.088Z,52.40
2019-01-29T08:33:37.035Z,53.60
2019-01-29T08:34:37.053Z,52.40
2019-01-29T08:35:37.054Z,54.90
2019-01-29T08:36:37.045Z,52.30
2019-01-29T08:37:36.994Z,50.70
2019-01-29T08:38:37.031Z,52.50
2019-01-29T08:39:37.030Z,52.50
2019-01-29T08:40:36.980Z,53.10
2019-01-29T08:41:36.990Z,54.50
2019-01-29T08:42:37.013Z,58.10
2019-01-29T08:43:36.956Z,56.30
2019-01-29T08:44:36.925Z,53.10
2019-01-29T08:45:36.912Z,53.50
2019-01-29T08:46:38.692Z,56.60
2019-01-29T08:47:36.953Z,53.10
2019-01-29T08:48:36.907Z,55.60
2019-01-29T08:49:36.861Z,53.20
2019-01-29T08:50:36.865Z,51.80
2019-01-29T08:51:36.889Z,49.60
2019-01-29T08:52:36.828Z,52.60
2019-01-29T08:53:36.835Z,50.00
2019-01-29T08:54:36.816Z,57.20
2019-01-29T08:55:36.802Z,51.60
2019-01-29T08:56:36.836Z,48.80
2019-01-29T08:57:36.811Z,51.50
2019-01-29T08:58:36.988Z,48.80
2019-01-29T08:59:36.770Z,53.40
2019-01-29T09:00:36.794Z,51.20
2019-01-29T09:01:36.741Z,53.80
2019-01-29T09:04:09.447Z,42.70
2019-01-29T09:05:10.448Z,48.50
2019-01-29T09:06:10.433Z,50.10
2019-01-29T09:07:10.404Z,50.60
2019-01-29T09:08:10.545Z,52.00
2019-01-29T09:09:10.419Z,50.50
2019-01-29T09:10:10.377Z,46.90
2019-01-29T09:11:10.479Z,49.00
2019-01-29T09:12:10.361Z,47.70
2019-01-29T09:13:10.322Z,47.30
2019-01-29T09:14:11.275Z,50.00
2019-01-29T09:15:10.621Z,50.10
2019-01-29T09:16:10.910Z,47.40
2019-01-29T09:17:12.270Z,48.80
2019-01-29T09:18:11.282Z,50.90
2019-01-29T09:19:10.283Z,48.10
2019-01-29T09:20:13.175Z,49.40
2019-01-29T09:21:10.306Z,48.40
2019-01-29T09:22:10.239Z,48.30
2019-01-29T09:23:11.433Z,48.70
2019-01-29T09:24:11.071Z,54.80
2019-01-29T09:25:18.975Z,46.30
2019-01-29T09:26:10.270Z,48.60
2019-01-29T09:27:10.213Z,48.20
2019-01-29T09:28:10.179Z,54.20
2019-01-29T09:29:17.612Z,50.50
2019-01-29T09:30:10.186Z,49.90
2019-01-29T09:31:10.221Z,55.00
2019-01-29T09:32:11.340Z,56.70
2019-01-29T09:33:10.101Z,52.30
2019-01-29T09:34:10.150Z,50.80
2019-01-29T09:35:10.140Z,53.60
2019-01-29T09:36:10.184Z,49.10
2019-01-29T09:37:10.088Z,53.90
2019-01-29T09:38:10.055Z,51.40
2019-01-29T09:39:10.062Z,50.60
2019-01-29T09:40:10.067Z,49.00
2019-01-29T09:41:10.094Z,53.00
2019-01-29T09:42:10.319Z,49.60
2019-01-29T09:43:10.017Z,52.30
2019-01-29T09:44:10.004Z,54.20
2019-01-29T09:45:09.988Z,48.90
2019-01-29T09:46:10.776Z,51.80
2019-01-29T09:47:09.972Z,49.70
2019-01-29T09:48:09.971Z,46.60
2019-01-29T09:49:11.226Z,51.70
2019-01-29T09:50:10.012Z,53.70
2019-01-29T09:51:09.936Z,51.20
2019-01-29T09:52:09.940Z,53.00
2019-01-29T09:53:09.881Z,51.90
2019-01-29T09:54:09.885Z,48.60
2019-01-29T09:55:09.877Z,51.50
2019-01-29T09:56:09.908Z,52.50
2019-01-29T09:57:09.858Z,49.30
2019-01-29T09:58:10.661Z,51.20
2019-01-29T09:59:10.307Z,51.30
2019-01-29T10:00:10.433Z,46.70
2019-01-29T10:01:09.856Z,49.80
2019-01-29T10:02:09.820Z,48.30
2019-01-29T10:03:10.057Z,47.20
2019-01-29T10:04:09.782Z,47.50
2019-01-29T10:05:09.770Z,50.60
2019-01-29T10:06:09.864Z,43.80
2019-01-29T10:07:09.952Z,45.30
2019-01-29T10:08:11.372Z,45.60
2019-01-29T10:09:09.727Z,49.10
2019-01-29T10:10:09.707Z,43.70
2019-01-29T10:11:09.701Z,45.70
2019-01-29T10:12:09.965Z,42.30
2019-01-29T10:13:09.691Z,47.40
2019-01-29T10:14:09.722Z,47.60
2019-01-29T10:15:09.654Z,46.00
2019-01-29T10:16:10.040Z,44.40
2019-01-29T10:17:09.661Z,45.60
2019-01-29T10:18:09.630Z,42.00
2019-01-29T10:19:09.615Z,43.20
2019-01-29T10:20:09.610Z,43.40
2019-01-29T10:21:09.611Z,43.50
2019-01-29T10:22:09.599Z,41.40
2019-01-29T10:23:09.569Z,41.00
2019-01-29T10:24:09.617Z,38.90
2019-01-29T10:25:09.554Z,43.30
2019-01-29T10:26:09.517Z,45.20
2019-01-29T10:27:09.620Z,39.50
2019-01-29T10:28:09.547Z,40.70
2019-01-29T10:29:09.502Z,41.60
2019-01-29T10:30:09.489Z,42.50
2019-01-29T10:31:09.482Z,41.10
2019-01-29T10:32:09.511Z,39.60
2019-01-29T10:33:10.007Z,44.00
2019-01-29T10:35:30.240Z,33.70
2019-01-29T10:36:31.710Z,40.80
2019-01-29T10:37:31.663Z,42.80
2019-01-29T10:38:31.104Z,41.30
2019-01-29T10:39:31.091Z,41.20
2019-01-29T10:40:31.049Z,39.10
2019-01-29T10:41:31.030Z,40.20
2019-01-29T10:42:31.200Z,42.00
2019-01-29T10:43:39.894Z,40.90
2019-01-29T10:44:31.019Z,40.20
2019-01-29T10:45:31.008Z,41.80
2019-01-29T10:46:31.186Z,40.10
2019-01-29T10:47:30.962Z,39.90
2019-01-29T10:48:30.951Z,41.10
2019-01-29T10:49:30.982Z,46.60
2019-01-29T10:50:30.962Z,43.70
2019-01-29T10:51:31.284Z,42.50
2019-01-29T10:52:31.018Z,44.00
2019-01-29T10:53:30.969Z,42.80
2019-01-29T10:54:31.000Z,39.40
2019-01-29T10:55:30.898Z,45.20
2019-01-29T10:56:30.925Z,40.10
2019-01-29T10:57:30.889Z,42.70
2019-01-29T10:58:30.867Z,45.00
2019-01-29T10:59:30.870Z,41.70
2019-01-29T11:00:30.845Z,41.20
2019-01-29T11:01:30.949Z,40.40
2019-01-29T11:02:30.851Z,42.40
2019-01-29T11:03:30.830Z,42.90
2019-01-29T11:04:30.826Z,39.20
2019-01-29T11:05:30.812Z,45.50
2019-01-29T11:06:30.805Z,41.60
2019-01-29T11:07:31.030Z,39.80
2019-01-29T11:08:30.769Z,41.70
2019-01-29T11:09:30.767Z,44.30
2019-01-29T11:10:30.732Z,42.20
2019-01-29T11:11:30.739Z,43.00
2019-01-29T11:12:30.699Z,41.70
2019-01-29T11:13:30.688Z,41.70
2019-01-29T11:14:30.706Z,39.70
2019-01-29T11:15:31.979Z,42.30
2019-01-29T11:16:31.702Z,35.10
2019-01-29T11:17:30.662Z,40.30
2019-01-29T11:18:30.633Z,34.40
2019-01-29T11:19:30.639Z,35.80
2019-01-29T11:20:30.609Z,37.60
2019-01-29T11:21:30.651Z,39.10
2019-01-29T11:22:30.591Z,38.50
2019-01-29T11:23:30.592Z,41.20
2019-01-29T11:24:30.647Z,37.40
2019-01-29T11:25:30.574Z,38.10
2019-01-29T11:26:30.569Z,38.70
2019-01-29T11:27:31.055Z,36.40
2019-01-29T11:28:30.543Z,38.50
2019-01-29T11:29:31.453Z,41.80
2019-01-29T11:30:32.139Z,37.10
2019-01-29T11:31:30.517Z,38.90
2019-01-29T11:32:30.489Z,40.50
2019-01-29T11:33:30.505Z,37.30
2019-01-29T11:34:30.466Z,39.00
2019-01-29T11:35:30.613Z,39.20
2019-01-29T11:36:33.346Z,34.40
2019-01-29T11:37:34.362Z,36.20
2019-01-29T11:38:30.418Z,36.90
2019-01-29T11:39:30.479Z,37.30
2019-01-29T11:40:30.422Z,35.40
2019-01-29T11:41:30.396Z,34.20
2019-01-29T11:42:30.389Z,40.50
2019-01-29T11:43:30.375Z,34.00
2019-01-29T11:44:30.575Z,33.90
2019-01-29T11:45:30.449Z,35.50
2019-01-29T11:46:30.490Z,34.60
2019-01-29T11:47:30.401Z,37.00
2019-01-29T11:48:30.394Z,33.40
2019-01-29T11:49:30.605Z,34.00
2019-01-29T11:50:30.420Z,33.40
2019-01-29T11:51:30.593Z,36.30
2019-01-29T11:52:30.438Z,34.90
2019-01-29T11:53:30.354Z,36.50
2019-01-29T11:54:30.620Z,32.90
2019-01-29T11:55:30.254Z,33.70
2019-01-29T11:56:30.226Z,35.30
2019-01-29T11:57:30.347Z,33.50
2019-01-29T11:58:30.232Z,34.70
2019-01-29T11:59:30.306Z,33.80
2019-01-29T12:00:30.287Z,30.70
2019-01-29T12:01:30.257Z,33.90
2019-01-29T12:02:30.410Z,32.40
2019-01-29T12:03:30.230Z,32.90
2019-01-29T12:04:30.235Z,33.40
2019-01-29T12:05:30.173Z,31.70
2019-01-29T12:06:31.028Z,36.70
2019-01-29T12:07:30.116Z,32.70
2019-01-29T12:08:30.097Z,27.60
2019-01-29T12:09:30.122Z,33.30
2019-01-29T12:10:30.090Z,30.70
2019-01-29T12:11:30.092Z,30.40
2019-01-29T12:12:30.170Z,32.10
2019-01-29T12:13:30.067Z,33.20
2019-01-29T12:14:30.077Z,34.40
2019-01-29T12:15:30.009Z,34.50
2019-01-29T12:16:30.013Z,33.10
2019-01-29T12:17:30.025Z,28.40
2019-01-29T12:18:29.997Z,29.90
2019-01-29T12:19:29.970Z,32.00
2019-01-29T12:20:29.975Z,28.80
2019-01-29T12:21:30.072Z,28.30
2019-01-29T12:22:29.953Z,30.50
2019-01-29T12:23:29.978Z,28.80
2019-01-29T12:24:29.939Z,28.30
2019-01-29T12:25:29.944Z,28.10
2019-01-29T12:26:29.921Z,26.40
2019-01-29T12:27:29.911Z,23.80
2019-01-29T12:28:29.889Z,28.90
2019-01-29T12:29:29.872Z,26.30
2019-01-29T12:30:29.860Z,27.50
2019-01-29T12:31:29.896Z,29.70
2019-01-29T12:32:29.864Z,26.90
2019-01-29T12:33:29.814Z,28.40
2019-01-29T12:34:29.807Z,25.60
2019-01-29T12:37:24.386Z,26.10
2019-01-29T12:38:25.400Z,25.60
2019-01-29T12:39:25.354Z,27.10
2019-01-29T12:40:25.353Z,26.40
2019-01-29T12:41:25.334Z,27.90
2019-01-29T12:42:25.357Z,24.90
2019-01-29T12:43:25.315Z,24.40
2019-01-29T12:44:25.305Z,25.10
2019-01-29T12:45:25.327Z,25.10
2019-01-29T12:46:25.315Z,31.80
2019-01-29T12:47:25.433Z,26.00
2019-01-29T12:48:25.276Z,23.70
2019-01-29T12:49:25.233Z,22.90
2019-01-29T12:50:25.245Z,27.60
2019-01-29T12:51:25.237Z,27.00
2019-01-29T12:52:25.217Z,25.20
2019-01-29T12:53:25.210Z,21.90
2019-01-29T12:54:25.183Z,28.20
2019-01-29T12:55:25.187Z,26.70
2019-01-29T12:56:25.213Z,25.60
2019-01-29T12:57:25.224Z,23.80
2019-01-29T12:58:25.211Z,23.20
2019-01-29T12:59:25.169Z,21.90
2019-01-29T13:00:25.127Z,20.90
2019-01-29T13:01:25.162Z,23.50
2019-01-29T13:02:25.162Z,24.50
2019-01-29T13:03:25.145Z,22.50
2019-01-29T13:04:25.094Z,20.80
2019-01-29T13:05:25.109Z,21.50
2019-01-29T13:06:25.076Z,21.30
2019-01-29T13:07:25.074Z,24.80
2019-01-29T13:08:25.111Z,20.20
2019-01-29T13:09:25.015Z,21.90
2019-01-29T13:10:25.055Z,19.90
2019-01-29T13:11:25.024Z,18.40
2019-01-29T13:12:25.018Z,20.60
2019-01-29T13:13:25.006Z,14.10
2019-01-29T13:14:25.027Z,19.50
2019-01-29T13:15:24.959Z,18.10
2019-01-29T13:16:24.991Z,17.30
2019-01-29T13:17:24.950Z,17.70
2019-01-29T13:18:25.037Z,17.60
2019-01-29T13:19:24.979Z,21.10
2019-01-29T13:20:25.007Z,16.50
2019-01-29T13:21:24.942Z,17.00
2019-01-29T13:22:24.962Z,18.60
2019-01-29T13:23:24.968Z,17.40
2019-01-29T13:24:24.891Z,18.30
2019-01-29T13:25:24.876Z,17.50
2019-01-29T13:26:29.863Z,17.80
2019-01-29T13:27:24.892Z,16.50
2019-01-29T14:23:04.265Z,9.70
2019-01-29T14:24:05.225Z,14.80
2019-01-29T14:25:05.198Z,15.30
2019-01-29T14:26:05.214Z,14.00
2019-01-29T14:27:05.181Z,15.50
2019-01-29T14:28:05.228Z,14.40
2019-01-29T14:29:05.205Z,13.40
2019-01-29T14:30:05.265Z,14.90
2019-01-29T14:31:05.149Z,16.90
2019-01-29T14:32:05.145Z,15.50
2019-01-29T14:33:05.162Z,16.10
2019-01-29T14:34:05.102Z,14.80
2019-01-29T14:35:05.095Z,16.00
2019-01-29T14:36:05.096Z,14.30
2019-01-29T14:37:05.063Z,14.60
2019-01-29T14:38:05.087Z,16.90
2019-01-29T14:39:05.051Z,15.70
2019-01-29T14:40:05.059Z,14.90
2019-01-29T14:41:05.031Z,15.90
2019-01-29T14:42:05.021Z,16.90
2019-01-29T14:43:05.049Z,15.30
2019-01-29T14:44:05.030Z,15.50
2019-01-29T14:45:04.999Z,16.20
2019-01-29T14:46:04.975Z,13.90
2019-01-29T14:47:04.962Z,14.20
2019-01-29T14:48:04.987Z,14.50
2019-01-29T14:49:04.979Z,15.20
2019-01-29T14:50:04.940Z,17.50
2019-01-29T14:51:04.920Z,16.60
2019-01-29T14:52:04.914Z,16.70
2019-01-29T14:53:04.894Z,17.60
2019-01-29T14:54:04.927Z,16.60
2019-01-29T14:55:04.900Z,16.20
2019-01-29T14:56:04.855Z,18.10
2019-01-29T14:57:04.864Z,16.10
2019-01-29T14:58:04.836Z,18.20
2019-01-29T14:59:04.852Z,16.50
2019-01-29T15:00:04.840Z,16.20
2019-01-29T15:01:04.818Z,16.10
2019-01-29T15:02:04.834Z,16.10
2019-01-29T15:03:04.809Z,17.20
2019-01-29T15:04:04.803Z,17.80
2019-01-29T15:05:04.767Z,17.00
2019-01-29T15:06:04.758Z,16.00
2019-01-29T15:07:04.744Z,16.30
2019-01-29T15:08:04.728Z,16.40
2019-01-29T15:09:04.745Z,15.70
2019-01-29T15:10:04.740Z,18.30
2019-01-29T15:11:04.712Z,16.40
2019-01-29T15:12:04.686Z,13.90
2019-01-29T15:13:04.705Z,18.20
2019-01-29T15:14:04.687Z,18.70
2019-01-29T15:15:04.672Z,17.00
2019-01-29T15:16:04.645Z,15.60
2019-01-29T15:17:04.636Z,15.40
2019-01-29T15:18:04.628Z,15.60
2019-01-29T15:19:04.640Z,15.70
2019-01-29T15:20:04.621Z,17.30
2019-01-29T15:21:04.606Z,15.80
2019-01-29T15:22:04.588Z,15.80
2019-01-29T15:23:04.565Z,17.30
2019-01-29T15:24:04.586Z,17.10
2019-01-29T15:25:04.560Z,16.20
2019-01-29T15:26:04.536Z,16.60
2019-01-29T15:27:05.742Z,15.70
2019-01-29T15:28:04.529Z,18.80
2019-01-29T15:29:04.537Z,16.40
2019-01-29T15:30:04.517Z,18.40
2019-01-29T15:31:04.506Z,15.90
2019-01-29T15:32:04.559Z,18.00
2019-01-29T15:33:04.473Z,16.80
2019-01-29T15:34:04.476Z,15.30
2019-01-29T15:35:04.462Z,15.00
2019-01-29T15:36:04.446Z,17.00
2019-01-29T15:37:04.427Z,15.40
2019-01-29T15:38:04.437Z,17.00
2019-01-29T15:39:04.417Z,17.20
2019-01-29T15:40:04.394Z,17.00
2019-01-29T15:41:04.382Z,14.00
2019-01-29T15:42:04.377Z,16.80
2019-01-29T15:43:04.365Z,13.30
2019-01-29T15:44:04.368Z,15.60
2019-01-29T15:45:04.330Z,17.00
2019-01-29T15:46:04.329Z,17.20
2019-01-29T15:47:04.320Z,14.40
2019-01-29T15:48:04.311Z,16.10
2019-01-29T15:49:04.318Z,17.70
2019-01-29T15:50:04.289Z,14.80
2019-01-29T15:51:04.266Z,16.20
2019-01-29T15:52:04.269Z,15.90
2019-01-29T15:53:04.250Z,16.60
2019-01-29T15:54:04.269Z,14.90
2019-01-29T15:55:04.588Z,17.10
2019-01-29T15:56:04.229Z,14.60
2019-01-29T15:57:04.217Z,14.90
2019-01-29T15:58:04.196Z,15.30
2019-01-29T15:59:04.196Z,16.20
2019-01-29T16:00:04.213Z,15.00
2019-01-29T16:01:04.171Z,15.50
2019-01-29T16:02:04.146Z,14.10
2019-01-29T16:03:04.139Z,14.70
2019-01-29T16:04:04.161Z,15.20
2019-01-29T16:05:04.130Z,13.70
2019-01-29T16:06:04.111Z,14.70
2019-01-29T16:07:04.106Z,12.30
2019-01-29T16:08:04.097Z,13.80
2019-01-29T16:09:04.106Z,17.30
2019-01-29T16:10:04.067Z,14.30
2019-01-29T16:11:04.062Z,14.00
2019-01-29T16:12:04.039Z,16.10
2019-01-29T16:13:04.050Z,15.50
2019-01-29T16:14:04.062Z,12.00
2019-01-29T16:15:04.051Z,14.30
2019-01-29T16:16:04.013Z,13.50
2019-01-29T16:17:03.996Z,16.00
2019-01-29T16:18:04.020Z,14.20
2019-01-29T16:19:03.982Z,12.20
2019-01-29T16:20:03.999Z,13.10
2019-01-29T16:21:03.951Z,11.40
2019-01-29T16:22:03.940Z,13.00
2019-01-29T16:24:13.127Z,11.70
2019-01-29T16:25:14.127Z,11.30
2019-01-29T16:26:14.096Z,13.40
2019-01-29T16:27:22.364Z,11.70
2019-01-29T16:28:14.088Z,12.40
2019-01-29T16:29:14.068Z,10.90
2019-01-29T16:30:14.083Z,12.20
2019-01-29T16:31:14.057Z,11.20
2019-01-29T16:32:14.042Z,10.40
2019-01-29T16:33:14.025Z,11.30
2019-01-29T16:34:14.038Z,10.20
2019-01-29T16:35:14.010Z,10.70
2019-01-29T16:36:13.986Z,9.90
2019-01-29T16:37:13.980Z,11.30
2019-01-29T16:38:13.975Z,9.90
2019-01-29T16:39:13.970Z,9.10
2019-01-29T16:40:13.965Z,11.40
2019-01-29T16:41:13.973Z,10.50
2019-01-29T16:42:13.922Z,12.10
2019-01-29T16:43:13.921Z,9.50
2019-01-29T16:44:13.900Z,10.70
2019-01-29T16:45:13.913Z,10.20
2019-01-29T16:46:13.920Z,10.90
2019-01-29T16:47:13.889Z,10.90
2019-01-29T16:48:13.862Z,11.70
2019-01-29T16:49:13.878Z,10.40
2019-01-29T16:50:13.836Z,10.70
2019-01-29T16:51:13.840Z,9.80
2019-01-29T16:52:13.823Z,9.80
2019-01-29T16:53:13.818Z,9.70
2019-01-29T16:54:13.798Z,8.70
2019-01-29T16:55:13.801Z,9.70
2019-01-29T16:56:13.805Z,8.70